Time;durP1;ratioP1;P1;durP2;ratioP2;P2;SDS_P1;SDS_P2;PMS_P1;PMS_P2;Temp;Humidity;BMP_temperature;BMP_pressure;BME280_temperature;BME280_humidity;BME280_pressure;Samples;Min_cycle;Max_cycle;Signal;HPM_P1;HPM_P2
2022/09/20 00:00:42;;;;;;;7.18;2.05;;;12.30;99.90;;;;;;4997683;28;20108;-71
2022/09/20 00:03:10;;;;;;;11.63;2.55;;;12.30;99.90;;;;;;5015278;28;20051;-70
2022/09/20 00:05:38;;;;;;;11.15;2.85;;;12.30;99.90;;;;;;5017011;28;20061;-71
2022/09/20 00:08:06;;;;;;;13.73;2.28;;;12.30;99.90;;;;;;5017089;28;20060;-71
2022/09/20 00:10:37;;;;;;;8.43;2.50;;;12.30;99.90;;;;;;5016234;28;20121;-70
2022/09/20 00:13:04;;;;;;;12.55;2.20;;;12.30;99.90;;;;;;4999963;28;20113;-70
2022/09/20 00:15:31;;;;;;;11.85;2.55;;;12.40;99.90;;;;;;4997487;28;20054;-71
2022/09/20 00:17:56;;;;;;;15.20;2.42;;;12.30;99.90;;;;;;4997435;28;20058;-71
2022/09/20 00:20:23;;;;;;;12.25;2.85;;;12.40;99.90;;;;;;4997261;28;20548;-70
2022/09/20 00:22:48;;;;;;;9.35;2.00;;;12.40;99.90;;;;;;5011630;28;20076;-70
2022/09/20 00:25:16;;;;;;;10.13;2.13;;;12.30;99.90;;;;;;5016727;28;20097;-72
2022/09/20 00:27:41;;;;;;;8.65;1.98;;;12.40;99.90;;;;;;5016965;28;20400;-70
2022/09/20 00:30:08;;;;;;;8.82;1.85;;;12.40;99.90;;;;;;4999594;28;20050;-70
2022/09/20 00:32:34;;;;;;;9.70;2.58;;;12.40;99.90;;;;;;5004031;28;20360;-72
2022/09/20 00:35:09;;;;;;;8.00;1.75;;;12.40;99.90;;;;;;4996748;28;20137;-70
2022/09/20 00:37:40;;;;;;;11.40;2.75;;;12.40;99.90;;;;;;4997045;28;20038;-70
2022/09/20 00:40:15;;;;;;;10.48;3.60;;;12.40;99.90;;;;;;4996958;28;20042;-72
2022/09/20 00:42:41;;;;;;;9.85;1.55;;;12.40;99.90;;;;;;5009976;28;20376;-70
2022/09/20 00:45:16;;;;;;;11.88;1.60;;;12.40;99.90;;;;;;5016557;28;20034;-70
2022/09/20 00:47:58;;;;;;;10.80;2.90;;;12.30;99.90;;;;;;5016395;28;20066;-71
2022/09/20 00:50:32;;;;;;;7.65;1.95;;;12.30;99.90;;;;;;5016344;28;20103;-71
2022/09/20 00:53:13;;;;;;;10.00;2.47;;;12.30;99.90;;;;;;5000526;28;20054;-72
2022/09/20 00:55:49;;;;;;;7.18;1.55;;;12.30;99.90;;;;;;4996799;28;20130;-70
2022/09/20 00:58:15;;;;;;;7.65;1.65;;;12.30;99.90;;;;;;4996734;28;20077;-70
2022/09/20 01:00:43;;;;;;;6.40;2.75;;;12.30;99.90;;;;;;4996476;28;20061;-70
2022/09/20 01:03:11;;;;;;;10.70;2.30;;;12.20;99.90;;;;;;5013036;28;20048;-70
2022/09/20 01:05:38;;;;;;;12.32;2.25;;;12.30;99.90;;;;;;5016033;28;20444;-71
2022/09/20 01:08:05;;;;;;;7.82;1.88;;;12.20;99.90;;;;;;5016044;28;20053;-70
2022/09/20 01:10:31;;;;;;;8.70;2.15;;;12.30;99.90;;;;;;5016026;28;20052;-70
2022/09/20 01:12:57;;;;;;;11.05;2.83;;;12.20;99.90;;;;;;4983567;28;20078;-71
2022/09/20 01:15:26;;;;;;;7.40;1.58;;;12.20;99.90;;;;;;4996825;28;20078;-70
2022/09/20 01:17:53;;;;;;;11.88;1.98;;;12.10;99.90;;;;;;4997138;28;20042;-70
2022/09/20 01:20:28;;;;;;;8.02;1.60;;;12.10;99.90;;;;;;4997027;28;20046;-71
2022/09/20 01:22:59;;;;;;;;;;;12.10;99.90;;;;;;5011052;28;20092;-70
2022/09/20 01:25:46;;;;;;;5.53;1.17;;;12.10;99.90;;;;;;5016213;28;19922;-71
2022/09/20 01:28:12;;;;;;;8.07;1.80;;;12.00;99.90;;;;;;5016309;28;20054;-70
2022/09/20 01:30:44;;;;;;;7.10;1.67;;;12.10;99.90;;;;;;5016244;28;20057;-70
2022/09/20 01:33:15;;;;;;;7.40;2.15;;;12.10;99.90;;;;;;4999538;28;20038;-70
2022/09/20 01:35:45;;;;;;;5.15;1.42;;;12.00;99.90;;;;;;4996599;28;20092;-70
2022/09/20 01:38:19;;;;;;;6.82;1.40;;;12.10;99.90;;;;;;4996723;28;20039;-72
2022/09/20 01:40:58;;;;;;;7.53;1.52;;;12.10;99.90;;;;;;4995991;28;20416;-71
2022/09/20 01:43:39;;;;;;;7.03;1.60;;;12.10;99.90;;;;;;4995844;28;20046;-70
2022/09/20 01:46:32;;;;;;;8.52;1.50;;;12.10;99.90;;;;;;4995785;28;20124;-70
2022/09/20 01:49:10;;;;;;;5.60;1.50;;;12.10;99.90;;;;;;4998879;28;20125;-72
2022/09/20 01:52:05;;;;;;;10.00;2.20;;;12.10;99.90;;;;;;5015489;28;20456;-70
2022/09/20 01:54:43;;;;;;;;;;;12.10;99.90;;;;;;5015076;28;20050;-71
2022/09/20 01:57:30;;;;;;;6.90;1.75;;;12.10;99.90;;;;;;5015073;28;19932;-70
2022/09/20 02:00:19;;;;;;;7.72;1.25;;;12.00;99.90;;;;;;5003383;28;20129;-71
2022/09/20 02:03:27;;;;;;;8.35;1.58;;;12.00;99.90;;;;;;4995420;28;20144;-71
2022/09/20 02:06:02;;;;;;;6.07;1.48;;;11.90;99.90;;;;;;4995600;28;20082;-71
2022/09/20 02:08:28;;;;;;;5.93;1.17;;;11.90;99.90;;;;;;4995440;28;20338;-71
2022/09/20 02:11:05;;;;;;;6.78;1.30;;;11.90;99.90;;;;;;5014045;28;20052;-70
2022/09/20 02:13:51;;;;;;;9.50;2.03;;;11.90;99.90;;;;;;5015144;28;20050;-69
2022/09/20 02:16:49;;;;;;;7.85;1.30;;;11.90;99.90;;;;;;5015044;28;20131;-70
2022/09/20 02:19:51;;;;;;;8.85;1.60;;;11.80;99.90;;;;;;5008882;28;20411;-71
2022/09/20 02:22:39;;;;;;;6.38;1.55;;;11.80;99.90;;;;;;4978491;28;20427;-70
2022/09/20 02:25:23;;;;;;;9.43;1.83;;;11.70;99.90;;;;;;4995218;28;20050;-69
2022/09/20 02:28:15;;;;;;;9.93;1.90;;;11.60;99.90;;;;;;4995222;28;20453;-69
2022/09/20 02:31:05;;;;;;;10.48;2.15;;;11.50;99.90;;;;;;4995127;28;20046;-72
2022/09/20 02:33:46;;;;;;;8.88;1.63;;;11.40;99.90;;;;;;5015422;28;20129;-71
2022/09/20 02:36:28;;;;;;;7.65;1.77;;;11.40;99.90;;;;;;5018774;28;20111;-70
2022/09/20 02:39:33;;;;;;;11.68;3.00;;;11.50;99.90;;;;;;5016166;28;20096;-72
2022/09/20 02:42:34;;;;;;;11.20;2.42;;;11.40;99.90;;;;;;4934629;28;20065;-69
2022/09/20 02:45:22;;;;;;;9.82;2.22;;;11.40;99.90;;;;;;4993533;28;20477;-70
2022/09/20 02:47:48;;;;;;;7.70;1.88;;;11.40;99.90;;;;;;4999118;28;20060;-70
2022/09/20 02:50:19;;;;;;;9.82;2.70;;;11.40;99.90;;;;;;5011506;28;20050;-70
2022/09/20 02:53:06;;;;;;;8.18;1.90;;;11.40;99.90;;;;;;5018558;28;20096;-70
2022/09/20 02:55:59;;;;;;;7.80;2.15;;;11.30;99.90;;;;;;5018383;28;20129;-70
2022/09/20 02:58:27;;;;;;;6.93;2.25;;;11.30;99.90;;;;;;5018392;28;20424;-71
2022/09/20 03:00:58;;;;;;;7.35;2.80;;;11.30;99.90;;;;;;4999950;28;20053;-70
2022/09/20 03:03:35;;;;;;;9.75;2.28;;;11.30;99.90;;;;;;4998776;28;20050;-70
2022/09/20 03:06:32;;;;;;;10.13;2.50;;;11.30;99.90;;;;;;4998651;28;20349;-71
2022/09/20 03:09:09;;;;;;;7.82;2.47;;;11.30;99.90;;;;;;5000293;28;20061;-69
2022/09/20 03:11:48;;;;;;;9.35;2.50;;;11.30;99.90;;;;;;5018403;28;20377;-71
2022/09/20 03:14:28;;;;;;;10.10;1.88;;;11.30;99.90;;;;;;5018130;28;20092;-71
2022/09/20 03:17:35;;;;;;;8.77;2.42;;;11.30;99.90;;;;;;5018463;28;20046;-71
2022/09/20 03:20:44;;;;;;;7.70;1.80;;;11.30;99.90;;;;;;5007652;28;20073;-71
2022/09/20 03:23:30;;;;;;;5.95;1.80;;;11.30;99.90;;;;;;4968065;28;20054;-71
2022/09/20 03:26:15;;;;;;;4.93;2.10;;;11.20;99.90;;;;;;4998403;28;20054;-72
2022/09/20 03:29:07;;;;;;;7.43;1.95;;;11.30;99.90;;;;;;4998154;28;20456;-70
2022/09/20 03:31:36;;;;;;;7.93;1.60;;;11.30;99.90;;;;;;4998359;28;20116;-70
2022/09/20 03:34:35;;;;;;;5.80;2.10;;;11.40;99.90;;;;;;4998103;28;20136;-71
2022/09/20 03:37:34;;;;;;;6.60;1.33;;;11.50;99.90;;;;;;4998151;28;20058;-70
2022/09/20 03:40:22;;;;;;;7.68;2.45;;;11.40;99.90;;;;;;4998329;28;20112;-69
2022/09/20 03:42:53;;;;;;;8.77;2.40;;;11.50;99.90;;;;;;4997940;28;20051;-70
2022/09/20 03:45:43;;;;;;;6.53;2.20;;;11.40;99.90;;;;;;4996757;28;20065;-71
2022/09/20 03:48:47;;;;;;;6.10;1.95;;;11.40;99.90;;;;;;4997958;28;20491;-71
2022/09/20 03:51:31;;;;;;;8.55;1.83;;;11.40;99.90;;;;;;4937797;29;20060;-70
2022/09/20 03:54:22;;;;;;;7.18;2.25;;;11.40;99.90;;;;;;4937963;29;20059;-70
2022/09/20 03:57:00;;;;;;;11.10;2.05;;;11.30;99.90;;;;;;4982143;28;20094;-70
2022/09/20 03:59:56;;;;;;;9.57;2.50;;;11.40;99.90;;;;;;5016610;28;20056;-70
2022/09/20 04:02:46;;;;;;;5.75;1.60;;;11.30;99.90;;;;;;5017367;28;20061;-70
2022/09/20 04:05:25;;;;;;;8.25;2.67;;;11.30;99.90;;;;;;5017310;28;20436;-72
2022/09/20 04:08:12;;;;;;;8.48;1.90;;;11.40;99.90;;;;;;4983313;28;20136;-71
2022/09/20 04:10:45;;;;;;;6.50;2.17;;;11.30;99.90;;;;;;4998082;28;20046;-70
2022/09/20 04:13:30;;;;;;;7.32;2.35;;;11.30;99.90;;;;;;4980497;28;20120;-70
2022/09/20 04:16:32;;;;;;;6.68;1.90;;;11.30;99.90;;;;;;4997587;28;20065;-70
2022/09/20 04:19:32;;;;;;;6.13;2.22;;;11.30;99.90;;;;;;5005936;28;20128;-70
2022/09/20 04:21:59;;;;;;;8.77;3.67;;;11.30;99.90;;;;;;5016810;28;20111;-71
2022/09/20 04:24:43;;;;;;;9.27;2.55;;;11.30;99.90;;;;;;5016725;28;20042;-71
2022/09/20 04:27:21;;;;;;;12.32;2.55;;;11.30;99.90;;;;;;5016976;28;20053;-70
2022/09/20 04:30:00;;;;;;;13.82;2.88;;;11.40;99.90;;;;;;5007174;28;20045;-70
2022/09/20 04:32:36;;;;;;;13.18;2.47;;;11.40;99.90;;;;;;4997975;28;20077;-71
2022/09/20 04:38:10;;;;;;;10.40;2.10;;;11.50;99.90;;;;;;4997768;28;20053;-70
2022/09/20 04:41:15;;;;;;;7.38;2.35;;;11.50;99.90;;;;;;4997192;28;20069;-69
2022/09/20 04:43:51;;;;;;;6.90;1.83;;;11.40;99.90;;;;;;4997044;28;20046;-70
2022/09/20 04:46:51;;;;;;;9.00;1.92;;;11.40;99.90;;;;;;4979813;28;20173;-71
2022/09/20 04:49:38;;;;;;;13.85;3.05;;;11.50;99.90;;;;;;4989887;28;20053;-71
2022/09/20 04:52:45;;;;;;;9.40;2.78;;;11.50;99.90;;;;;;5016422;28;20067;-70
2022/09/20 04:55:43;;;;;;;9.60;2.03;;;11.50;99.90;;;;;;5016271;28;20073;-70
2022/09/20 04:58:35;;;;;;;10.45;2.38;;;11.50;99.90;;;;;;5014377;28;20050;-70
2022/09/20 05:01:16;;;;;;;14.57;2.47;;;11.50;99.90;;;;;;4996642;28;20093;-71
2022/09/20 05:04:08;;;;;;;15.93;2.10;;;11.40;99.90;;;;;;4996423;28;20460;-70
2022/09/20 05:06:45;;;;;;;7.47;1.95;;;11.40;99.90;;;;;;4996409;28;20057;-74
2022/09/20 05:09:51;;;;;;;14.43;2.65;;;11.40;99.90;;;;;;5005619;28;20490;-72
2022/09/20 05:12:53;;;;;;;9.48;2.25;;;11.50;99.90;;;;;;4998486;28;20064;-70
2022/09/20 05:15:49;;;;;;;7.80;2.28;;;11.40;99.90;;;;;;5016043;28;20147;-70
2022/09/20 05:18:39;;;;;;;8.02;2.28;;;11.40;99.90;;;;;;5013761;28;20050;-73
2022/09/20 05:21:31;;;;;;;13.68;3.20;;;11.30;99.90;;;;;;4996184;28;20046;-71
2022/09/20 05:24:18;;;;;;;8.00;1.90;;;11.30;99.90;;;;;;4996405;28;20060;-72
2022/09/20 05:27:19;;;;;;;8.25;2.08;;;11.30;99.90;;;;;;4995427;28;20137;-68
2022/09/20 05:29:58;;;;;;;9.20;2.40;;;11.30;99.90;;;;;;4939052;28;20056;-69
2022/09/20 05:32:30;;;;;;;9.18;2.70;;;11.30;99.90;;;;;;4998377;28;20131;-69
2022/09/20 05:35:34;;;;;;;7.72;2.28;;;11.30;99.90;;;;;;5015636;28;20050;-68
2022/09/20 05:38:27;;;;;;;9.57;3.22;;;11.30;99.90;;;;;;5015777;28;20144;-69
2022/09/20 05:41:13;;;;;;;13.85;3.13;;;11.30;99.90;;;;;;5002731;28;20104;-72
2022/09/20 05:44:10;;;;;;;14.65;3.03;;;11.20;99.90;;;;;;5015180;28;20141;-68
2022/09/20 05:47:06;;;;;;;7.50;2.50;;;11.20;99.90;;;;;;5015389;28;20046;-68
2022/09/20 05:49:49;;;;;;;8.00;2.38;;;11.20;99.90;;;;;;4986448;28;20058;-68
2022/09/20 05:52:32;;;;;;;7.68;2.80;;;11.20;99.90;;;;;;4995496;28;20492;-68
2022/09/20 05:55:22;;;;;;;11.52;4.30;;;11.20;99.90;;;;;;4995661;28;20142;-68
2022/09/20 05:58:29;;;;;;;9.80;2.85;;;11.20;99.90;;;;;;4959060;28;20054;-68
2022/09/20 06:01:07;;;;;;;10.85;3.20;;;11.20;99.90;;;;;;4995533;28;20057;-68
2022/09/20 06:03:38;;;;;;;7.45;2.78;;;11.20;99.90;;;;;;4995493;28;20471;-68
2022/09/20 06:06:16;;;;;;;9.52;2.50;;;11.30;99.90;;;;;;4995219;28;20412;-68
2022/09/20 06:09:19;;;;;;;10.40;2.78;;;11.30;99.90;;;;;;4994757;28;20050;-69
2022/09/20 06:12:17;;;;;;;11.32;3.10;;;11.40;99.90;;;;;;4995431;28;20074;-67
2022/09/20 06:15:00;;;;;;;13.00;2.88;;;11.50;99.90;;;;;;4995114;28;20038;-68
2022/09/20 06:17:42;;;;;;;11.38;2.50;;;11.60;99.90;;;;;;4995386;28;20043;-69
2022/09/20 06:20:23;;;;;;;13.55;2.35;;;11.60;99.90;;;;;;5010803;28;20072;-69
2022/09/20 06:22:53;;;;;;;8.57;1.65;;;11.60;99.90;;;;;;5014453;28;20046;-69
2022/09/20 06:25:38;;;;;;;14.82;2.13;;;11.70;99.90;;;;;;4997090;28;20129;-68
2022/09/20 06:28:04;;;;;;;;;;;11.70;99.90;;;;;;5002849;28;20105;-69
2022/09/20 06:30:36;;;;;;;10.18;1.98;;;11.80;99.90;;;;;;4995284;28;19922;-68
2022/09/20 06:33:04;;;;;;;7.10;1.85;;;11.70;99.90;;;;;;4995320;28;20078;-68
2022/09/20 06:35:38;;;;;;;7.95;2.28;;;11.80;99.90;;;;;;4995114;28;20084;-68
2022/09/20 06:41:27;;;;;;;10.75;2.22;;;12.00;99.90;;;;;;5014840;28;20058;-68
2022/09/20 06:43:57;;;;;;;9.38;2.60;;;12.00;99.90;;;;;;5014468;28;20056;-68
2022/09/20 06:46:23;;;;;;;12.43;2.58;;;12.10;99.90;;;;;;5014573;28;20136;-69
2022/09/20 06:48:49;;;;;;;10.30;2.88;;;12.20;99.90;;;;;;4996618;28;20129;-68
2022/09/20 06:51:14;;;;;;;10.80;1.98;;;12.20;99.90;;;;;;4995170;28;20453;-69
2022/09/20 06:53:41;;;;;;;7.68;2.22;;;12.30;99.90;;;;;;4961835;28;20054;-68
2022/09/20 06:56:18;;;;;;;8.35;2.33;;;12.30;99.90;;;;;;4994947;28;20038;-68
2022/09/20 06:58:44;;;;;;;13.25;2.20;;;12.40;99.90;;;;;;4994346;28;20061;-68
2022/09/20 07:01:09;;;;;;;8.18;2.60;;;12.40;99.90;;;;;;5014653;28;20042;-69
2022/09/20 07:03:35;;;;;;;11.68;3.53;;;12.40;99.90;;;;;;4997467;28;20062;-69
2022/09/20 07:06:01;;;;;;;11.07;2.58;;;12.40;99.90;;;;;;5014618;28;20046;-71
2022/09/20 07:08:27;;;;;;;8.15;2.72;;;12.40;99.90;;;;;;5000074;28;20054;-70
2022/09/20 07:10:53;;;;;;;8.77;2.30;;;12.40;99.90;;;;;;4994950;28;20057;-71
2022/09/20 07:13:19;;;;;;;9.77;2.67;;;12.40;99.90;;;;;;4994462;28;20520;-71
2022/09/20 07:15:45;;;;;;;12.13;2.50;;;12.40;99.90;;;;;;4994996;28;20101;-73
2022/09/20 07:18:11;;;;;;;9.77;2.35;;;12.40;99.90;;;;;;5006743;28;20411;-69
2022/09/20 07:20:36;;;;;;;12.98;2.78;;;12.40;99.90;;;;;;5016780;28;20042;-75
2022/09/20 07:23:02;;;;;;;10.75;2.25;;;12.50;99.90;;;;;;4984569;28;20380;-69
2022/09/20 07:25:30;;;;;;;10.15;2.10;;;12.50;99.90;;;;;;5017960;28;20452;-69
2022/09/20 07:27:56;;;;;;;6.00;1.92;;;12.50;99.90;;;;;;5007787;28;20061;-69
2022/09/20 07:30:22;;;;;;;6.90;1.83;;;12.50;99.90;;;;;;4981438;28;20120;-70
2022/09/20 07:32:47;;;;;;;6.28;1.55;;;12.50;99.90;;;;;;4998300;28;20046;-69
2022/09/20 07:35:14;;;;;;;6.30;1.80;;;12.50;99.90;;;;;;4997923;28;20057;-69
2022/09/20 07:37:42;;;;;;;5.55;1.60;;;12.60;99.90;;;;;;5005306;28;20112;-70
2022/09/20 07:40:10;;;;;;;9.85;2.15;;;12.70;99.90;;;;;;5017620;28;20050;-70
2022/09/20 07:42:36;;;;;;;7.38;1.73;;;12.70;99.90;;;;;;5017120;28;20467;-69
2022/09/20 07:45:02;;;;;;;11.30;2.65;;;12.80;99.90;;;;;;5017538;28;20045;-69
2022/09/20 07:47:31;;;;;;;25.85;2.60;;;12.80;99.90;;;;;;5011524;28;20109;-70
2022/09/20 07:49:57;;;;;;;6.10;1.67;;;12.80;99.90;;;;;;4997571;28;20064;-70
2022/09/20 07:52:23;;;;;;;7.65;1.63;;;12.90;99.90;;;;;;4981052;28;20364;-69
2022/09/20 07:54:49;;;;;;;10.98;1.70;;;13.00;99.90;;;;;;4997603;28;20537;-70
2022/09/20 07:57:15;;;;;;;8.30;1.50;;;13.00;99.90;;;;;;5001213;28;20048;-68
2022/09/20 07:59:40;;;;;;;9.35;1.88;;;13.30;99.90;;;;;;5017122;28;20045;-69
2022/09/20 08:02:08;;;;;;;7.25;3.17;;;13.30;99.90;;;;;;5017059;28;20379;-71
2022/09/20 08:04:33;;;;;;;6.68;2.10;;;13.40;99.90;;;;;;5017321;28;20049;-70
2022/09/20 08:07:00;;;;;;;12.10;1.55;;;13.40;99.90;;;;;;5015193;28;20053;-69
2022/09/20 08:09:25;;;;;;;12.05;1.83;;;13.60;99.90;;;;;;4997407;28;20061;-69
2022/09/20 08:11:51;;;;;;;7.63;1.73;;;13.70;99.90;;;;;;4997603;28;20043;-70
2022/09/20 08:14:17;;;;;;;8.73;2.05;;;13.70;99.90;;;;;;4997636;28;20042;-69
2022/09/20 08:16:46;;;;;;;8.70;1.50;;;13.70;99.90;;;;;;4997421;28;20046;-68
2022/09/20 08:19:17;;;;;;;9.27;1.85;;;13.70;99.90;;;;;;5015902;28;20052;-71
2022/09/20 08:21:43;;;;;;;8.80;2.00;;;13.70;99.90;;;;;;4999735;28;20054;-69
2022/09/20 08:24:10;;;;;;;6.15;1.77;;;13.70;99.90;;;;;;5017033;28;20353;-69
2022/09/20 08:26:35;;;;;;;6.18;1.77;;;13.80;99.90;;;;;;5017074;28;20334;-68
2022/09/20 08:29:04;;;;;;;8.25;1.60;;;13.70;99.90;;;;;;4999244;28;20072;-69
2022/09/20 08:31:33;;;;;;;10.60;1.77;;;13.80;99.90;;;;;;4996280;28;20043;-70
2022/09/20 08:34:02;;;;;;;10.63;2.33;;;13.80;99.90;;;;;;4996747;28;20049;-69
2022/09/20 08:36:30;;;;;;;8.73;1.65;;;13.90;99.90;;;;;;4997011;28;20061;-70
2022/09/20 08:38:56;;;;;;;6.30;1.83;;;14.00;99.90;;;;;;5013178;28;20050;-70
2022/09/20 08:41:31;;;;;;;4.28;1.20;;;14.00;99.90;;;;;;5016664;28;20046;-70
2022/09/20 08:44:24;;;;;;;11.80;2.03;;;14.10;99.90;;;;;;5016326;28;20115;-70
2022/09/20 08:46:53;;;;;;;11.80;2.60;;;14.20;99.90;;;;;;5001972;28;20046;-70
2022/09/20 08:49:27;;;;;;;7.78;2.25;;;14.30;99.90;;;;;;4996948;28;20474;-70
2022/09/20 08:51:56;;;;;;;7.03;1.98;;;14.40;99.90;;;;;;4996654;28;20053;-72
2022/09/20 08:54:23;;;;;;;5.60;1.35;;;14.40;99.90;;;;;;4996697;28;20047;-72
2022/09/20 08:56:49;;;;;;;10.95;2.15;;;14.40;99.90;;;;;;4996963;28;20038;-70
2022/09/20 08:59:18;;;;;;;5.03;1.27;;;14.40;99.90;;;;;;5015104;28;20124;-71
2022/09/20 09:01:47;;;;;;;6.68;1.50;;;14.50;99.90;;;;;;5016163;28;20041;-70
2022/09/20 09:04:20;;;;;;;6.10;1.42;;;14.40;99.90;;;;;;4998785;28;20050;-73
2022/09/20 09:06:46;;;;;;;5.00;1.20;;;14.50;99.90;;;;;;5016009;28;20061;-68
2022/09/20 09:09:40;;;;;;;10.00;1.70;;;14.50;99.90;;;;;;4997057;28;20147;-68
2022/09/20 09:12:25;;;;;;;7.00;1.55;;;14.40;99.90;;;;;;4993954;28;20050;-66
2022/09/20 09:14:56;;;;;;;5.32;1.48;;;14.50;99.90;;;;;;4979142;28;20057;-66
2022/09/20 09:17:27;;;;;;;5.53;0.95;;;14.60;99.90;;;;;;4999039;28;20105;-67
2022/09/20 09:20:06;;;;;;;7.57;1.70;;;14.70;99.90;;;;;;5015311;28;20042;-65
2022/09/20 09:22:41;;;;;;;4.95;1.35;;;14.80;99.90;;;;;;4981613;28;20456;-66
2022/09/20 09:25:16;;;;;;;10.40;1.67;;;14.90;99.90;;;;;;5015787;28;20068;-66
2022/09/20 09:27:59;;;;;;;;;;;15.00;99.90;;;;;;5010373;28;20086;-67
2022/09/20 09:30:31;;;;;;;5.15;1.38;;;15.00;99.90;;;;;;4996063;28;19922;-67
2022/09/20 09:33:23;;;;;;;7.15;1.95;;;14.90;99.90;;;;;;4979219;28;20085;-66
2022/09/20 09:36:01;;;;;;;6.78;1.65;;;15.00;99.90;;;;;;4996160;28;20050;-66
2022/09/20 09:38:32;;;;;;;4.63;1.25;;;15.20;99.90;;;;;;5007289;28;20439;-66
2022/09/20 09:41:00;;;;;;;7.38;1.70;;;15.10;99.90;;;;;;5015556;28;20046;-66
2022/09/20 09:43:36;;;;;;;9.82;1.65;;;15.00;99.90;;;;;;5015532;28;20050;-66
2022/09/20 09:46:22;;;;;;;7.80;1.58;;;15.00;99.90;;;;;;5015259;28;20463;-66
2022/09/20 09:49:21;;;;;;;7.70;1.60;;;15.00;99.90;;;;;;5000784;28;20129;-67
2022/09/20 09:52:13;;;;;;;11.50;1.60;;;14.90;99.90;;;;;;4995960;28;20053;-65
2022/09/20 09:54:50;;;;;;;8.27;1.92;;;14.90;99.90;;;;;;4978215;28;20050;-65
2022/09/20 09:57:34;;;;;;;7.97;2.03;;;15.00;99.90;;;;;;4979953;28;20124;-67
2022/09/20 10:00:15;;;;;;;6.90;1.83;;;14.90;99.90;;;;;;5015550;28;20045;-65
2022/09/20 10:03:21;;;;;;;7.10;1.83;;;14.90;99.90;;;;;;5015481;28;20125;-67
2022/09/20 10:06:11;;;;;;;10.30;1.77;;;14.80;99.90;;;;;;5015104;28;20092;-67
2022/09/20 10:09:22;;;;;;;8.02;1.83;;;14.80;99.90;;;;;;5002487;28;20076;-66
2022/09/20 10:12:23;;;;;;;10.63;1.85;;;14.70;99.90;;;;;;4995741;28;20158;-66
2022/09/20 10:15:00;;;;;;;7.57;1.77;;;14.60;99.90;;;;;;4995426;28;20054;-66
2022/09/20 10:17:54;;;;;;;5.68;1.40;;;14.60;99.90;;;;;;5010981;28;20098;-68
2022/09/20 10:20:27;;;;;;;7.82;2.28;;;14.60;99.90;;;;;;4997647;28;20054;-67
2022/09/20 10:23:14;;;;;;;8.75;1.90;;;14.50;99.90;;;;;;5015185;28;20057;-67
2022/09/20 10:25:50;;;;;;;7.50;2.10;;;14.50;99.90;;;;;;5013504;28;20049;-65
2022/09/20 10:28:47;;;;;;;10.30;1.73;;;14.50;99.90;;;;;;4995344;28;20058;-66
2022/09/20 10:31:30;;;;;;;6.10;1.75;;;14.70;99.90;;;;;;4995145;28;20046;-65
2022/09/20 10:34:34;;;;;;;8.57;1.40;;;14.80;99.90;;;;;;4995329;28;20353;-66
2022/09/20 10:37:01;;;;;;;6.95;1.63;;;14.80;99.90;;;;;;5006625;28;20064;-65
2022/09/20 10:39:26;;;;;;;6.05;1.35;;;14.90;99.90;;;;;;5014723;28;20058;-67
2022/09/20 10:44:55;;;;;;;10.13;2.45;;;15.30;99.90;;;;;;5014985;28;20129;-66
2022/09/20 10:47:30;;;;;;;6.75;1.20;;;15.50;99.90;;;;;;5000065;28;20100;-67
2022/09/20 10:50:15;;;;;;;6.35;1.35;;;15.50;99.90;;;;;;4978169;28;20046;-67
2022/09/20 10:53:03;;;;;;;8.55;1.42;;;15.50;99.90;;;;;;4995320;28;20042;-66
2022/09/20 10:55:50;;;;;;;6.85;1.45;;;15.60;99.90;;;;;;4997039;28;20060;-66
2022/09/20 10:58:25;;;;;;;6.35;1.75;;;15.70;99.90;;;;;;4998653;28;20054;-66
2022/09/20 11:01:12;;;;;;;8.05;1.65;;;15.70;99.90;;;;;;4981697;28;20108;-67
2022/09/20 11:03:54;;;;;;;10.15;1.95;;;15.70;99.90;;;;;;4998886;28;20365;-67
2022/09/20 11:06:38;;;;;;;8.15;2.40;;;15.60;99.90;;;;;;4998836;28;20046;-67
2022/09/20 11:09:09;;;;;;;8.18;2.22;;;15.40;99.90;;;;;;5018231;28;20038;-67
2022/09/20 11:11:45;;;;;;;7.65;2.25;;;15.10;99.90;;;;;;5018344;28;20050;-66
2022/09/20 11:14:17;;;;;;;9.27;1.83;;;14.80;99.90;;;;;;5018123;28;20050;-66
2022/09/20 11:16:59;;;;;;;9.07;2.08;;;14.70;99.90;;;;;;5009281;28;20078;-67
2022/09/20 11:19:34;;;;;;;11.70;2.42;;;14.50;99.90;;;;;;4998275;28;20433;-64
2022/09/20 11:22:10;;;;;;;11.15;1.67;;;14.70;99.90;;;;;;4998651;28;20413;-65
2022/09/20 11:24:54;;;;;;;8.20;2.38;;;14.80;99.90;;;;;;4998318;28;20034;-65
2022/09/20 11:27:28;;;;;;;8.27;1.42;;;14.70;99.90;;;;;;5010521;28;20108;-66
2022/09/20 11:29:53;;;;;;;;;;;14.70;99.90;;;;;;5001126;28;20342;-65
2022/09/20 11:32:29;;;;;;;5.90;1.70;;;14.70;99.90;;;;;;5017859;28;19928;-67
2022/09/20 11:35:09;;;;;;;7.32;1.88;;;14.60;99.90;;;;;;5017948;28;20396;-66
2022/09/20 11:37:39;;;;;;;6.03;1.60;;;14.60;99.90;;;;;;5002583;28;20054;-66
2022/09/20 11:40:23;;;;;;;6.88;2.28;;;14.50;99.90;;;;;;4997929;28;20480;-66
2022/09/20 11:42:51;;;;;;;9.02;3.28;;;14.60;99.90;;;;;;4998200;28;20082;-66
2022/09/20 11:45:18;;;;;;;7.35;2.00;;;14.80;99.90;;;;;;4998238;28;20050;-67
2022/09/20 11:47:53;;;;;;;6.90;2.13;;;14.90;99.90;;;;;;5013631;28;20080;-67
2022/09/20 11:50:18;;;;;;;;;;;15.00;99.90;;;;;;5018014;28;20116;-67
2022/09/20 11:53:24;;;;;;;8.73;1.98;;;15.10;99.90;;;;;;5017689;28;19921;-67
2022/09/20 11:56:26;;;;;;;11.85;1.98;;;15.20;99.90;;;;;;5010796;28;20057;-66
2022/09/20 11:58:55;;;;;;;8.05;1.70;;;15.40;99.90;;;;;;4985065;28;20073;-67
2022/09/20 12:01:26;;;;;;;7.47;1.52;;;15.40;99.90;;;;;;4997799;28;20063;-64
2022/09/20 12:03:56;;;;;;;10.20;2.15;;;15.50;99.90;;;;;;4980855;28;20069;-66
2022/09/20 12:06:32;;;;;;;7.35;1.67;;;15.60;99.90;;;;;;5010580;28;20113;-67
2022/09/20 12:09:00;;;;;;;7.40;1.92;;;15.70;99.90;;;;;;5017072;28;20141;-67
2022/09/20 12:11:37;;;;;;;9.32;1.48;;;15.80;99.90;;;;;;5016936;28;20085;-66
2022/09/20 12:14:26;;;;;;;8.25;1.27;;;16.00;99.90;;;;;;5007835;28;20060;-67
2022/09/20 12:16:53;;;;;;;8.18;1.88;;;16.00;99.90;;;;;;4980324;28;20042;-66
2022/09/20 12:19:32;;;;;;;7.03;2.10;;;16.00;99.90;;;;;;4980016;28;20492;-67
2022/09/20 12:21:57;;;;;;;7.18;1.42;;;16.20;99.90;;;;;;4980103;28;20081;-67
2022/09/20 12:24:34;;;;;;;5.63;1.80;;;16.30;99.90;;;;;;4991579;28;20414;-67
2022/09/20 12:27:21;;;;;;;6.20;1.55;;;16.30;99.90;;;;;;5016885;28;20061;-67
2022/09/20 12:29:46;;;;;;;10.18;2.20;;;16.20;99.90;;;;;;5016001;28;20491;-67
2022/09/20 12:32:32;;;;;;;3.60;1.45;;;15.90;99.90;;;;;;4999372;28;20046;-67
2022/09/20 12:34:58;;;;;;;6.47;1.27;;;16.00;99.90;;;;;;4983018;28;20061;-67
2022/09/20 12:37:25;;;;;;;7.40;1.73;;;15.90;99.90;;;;;;4997158;28;20050;-67
2022/09/20 12:39:53;;;;;;;9.55;1.52;;;16.00;99.90;;;;;;4997034;28;20085;-65
2022/09/20 12:42:27;;;;;;;6.25;1.92;;;16.20;99.90;;;;;;4996951;28;20050;-66
2022/09/20 12:45:16;;;;;;;6.67;1.57;;;16.60;99.90;;;;;;5011920;28;20108;-63
2022/09/20 12:47:51;;;;;;;5.75;2.20;;;16.70;99.90;;;;;;5016448;28;20789;-64
2022/09/20 12:53:13;;;;;;;6.70;1.40;;;16.40;99.90;;;;;;5015411;28;20042;-66
2022/09/20 12:56:02;;;;;;;5.00;1.40;;;16.10;99.90;;;;;;4996625;28;20081;-65
2022/09/20 12:58:43;;;;;;;7.22;1.60;;;16.40;99.90;;;;;;4979593;28;20206;-63
2022/09/20 13:01:09;;;;;;;5.15;1.80;;;16.60;99.90;;;;;;4996517;28;20093;-64
2022/09/20 13:03:40;;;;;;;3.72;1.15;;;16.70;99.90;;;;;;5000517;28;20053;-68
2022/09/20 13:06:07;;;;;;;5.60;1.67;;;17.00;99.90;;;;;;5016162;28;20476;-66
2022/09/20 13:08:50;;;;;;;6.78;1.58;;;17.10;99.90;;;;;;4998845;28;20384;-68
2022/09/20 13:11:52;;;;;;;3.35;1.17;;;17.20;99.90;;;;;;5015973;28;20417;-64
2022/09/20 13:14:27;;;;;;;5.28;1.50;;;17.30;99.90;;;;;;5003902;28;20055;-68
2022/09/20 13:17:16;;;;;;;3.67;1.23;;;17.50;99.80;;;;;;4996361;28;20089;-67
2022/09/20 13:19:45;;;;;;;8.50;2.17;;;17.50;99.60;;;;;;4995406;28;20093;-64
2022/09/20 13:22:13;;;;;;;5.13;1.40;;;17.70;99.20;;;;;;4996214;28;20060;-66
2022/09/20 13:24:50;;;;;;;6.60;1.80;;;17.90;99.70;;;;;;5008513;28;20061;-66
2022/09/20 13:27:22;;;;;;;6.35;1.38;;;18.10;99.60;;;;;;4982243;28;20495;-65
2022/09/20 13:29:48;;;;;;;9.63;1.63;;;18.20;98.20;;;;;;5015656;28;20108;-65
2022/09/20 13:32:27;;;;;;;7.35;1.73;;;18.30;98.60;;;;;;5013328;28;20050;-65
2022/09/20 13:35:12;;;;;;;5.50;1.67;;;18.60;96.70;;;;;;4995845;28;20081;-65
2022/09/20 13:37:45;;;;;;;8.18;2.25;;;18.80;95.90;;;;;;4996137;28;20068;-65
2022/09/20 13:40:20;;;;;;;5.45;2.13;;;19.00;97.30;;;;;;4995699;28;20054;-65
2022/09/20 13:42:52;;;;;;;7.63;1.50;;;18.90;95.40;;;;;;5001657;28;20381;-65
2022/09/20 13:45:19;;;;;;;4.32;1.33;;;19.30;95.50;;;;;;5015331;28;20469;-66
2022/09/20 13:47:50;;;;;;;6.28;1.70;;;19.10;95.50;;;;;;5015448;28;20065;-65
2022/09/20 13:50:19;;;;;;;4.80;1.50;;;19.40;94.90;;;;;;5015676;28;20076;-65
2022/09/20 13:52:48;;;;;;;6.82;1.77;;;20.10;94.50;;;;;;5008911;28;20038;-64